Aviation Digital Data Service (ADDS)

Output produced by METARs form (0900 UTC 30 April 2016)
found at http://www.aviationweather.gov/adds/metars/
 
KGED 300854Z AUTO 02008KT 4SM BR OVC006 09/08 A3014 RMK AO2 SLP206 T00890083 53007